Cavan, Ireland
Current Conditions -  °F | °C
As of 8:00 AM on Thursday 29 Jan 2015 (Local Time) from EIKN Reporting Station
Snow Showers Snow Showers  
Wind Chill: 22°   Ceiling: 300
Heat Index: 34°   Visibility: 1.1mi
Dew Point: 30°   Wind: 20mph
Humidity: 87%   Direction: 280°W
Pressure: 29.06"   Gusts: NA
Location:  54°N, 7.37°W
Report Text: EIKN 290800Z 28017KT 1800 -SHSN OVC003 01/M01 Q0984 R27//99// NOSIG
Loading
Personal Weather Stations






























Interactive Weather Map New forecast layout! Learn more

10-Day Weather Forecast

Advertisements
Track Severe Weather on mobile